Time,TemperatureF,DewpointF,PressureIn,WindDirection,WindDirectionDegrees,WindSpeedMPH,WindSpeedGustMPH,Humidity,HourlyPrecipIn,Conditions,Clouds,dailyrainin,SoftwareType,DateUTC
2013-06-16 00:01:00,47.0,33.0,-100.00,SW,230,3.0,5.0,58,-99.99,,,-99.99,,2013-06-16 06:01:00,
2013-06-16 00:11:00,47.0,33.0,-100.00,SW,230,3.0,5.0,58,-99.99,,,-99.99,,2013-06-16 06:11:00,
2013-06-16 00:22:00,47.0,32.0,-100.00,SW,231,2.0,4.0,55,-99.99,,,-99.99,,2013-06-16 06:22:00,
2013-06-16 00:33:00,47.0,32.0,-100.00,SW,231,2.0,4.0,55,-99.99,,,-99.99,,2013-06-16 06:33:00,
2013-06-16 00:43:00,46.0,32.0,-100.00,SW,219,2.0,4.0,58,-99.99,,,-99.99,,2013-06-16 06:43:00,
2013-06-16 00:52:00,46.0,32.0,-100.00,SW,219,2.0,4.0,58,-99.99,,,-99.99,,2013-06-16 06:52:00,
2013-06-16 01:01:00,45.0,32.0,-100.00,WSW,239,3.0,5.0,60,-99.99,,,-99.99,,2013-06-16 07:01:00,
2013-06-16 01:11:00,45.0,32.0,-100.00,WSW,239,3.0,5.0,60,-99.99,,,-99.99,,2013-06-16 07:11:00,
2013-06-16 01:43:00,43.0,31.0,-100.00,WSW,245,2.0,3.0,63,-99.99,,,-99.99,,2013-06-16 07:43:00,
2013-06-16 01:53:00,43.0,31.0,-100.00,WSW,245,2.0,3.0,63,-99.99,,,-99.99,,2013-06-16 07:53:00,
2013-06-16 02:02:00,42.0,31.0,-100.00,WSW,238,3.0,4.0,63,-99.99,,,-99.99,,2013-06-16 08:02:00,
2013-06-16 02:11:00,41.0,31.0,-100.00,WSW,241,3.0,4.0,66,-99.99,,,-99.99,,2013-06-16 08:11:00,
2013-06-16 02:22:00,41.0,31.0,-100.00,WSW,241,3.0,4.0,66,-99.99,,,-99.99,,2013-06-16 08:22:00,
2013-06-16 02:43:00,40.0,30.0,-100.00,WSW,242,4.0,5.0,68,-99.99,,,-99.99,,2013-06-16 08:43:00,
2013-06-16 02:54:00,40.0,30.0,-100.00,WSW,242,4.0,5.0,68,-99.99,,,-99.99,,2013-06-16 08:54:00,
2013-06-16 03:01:00,40.0,30.0,-100.00,WSW,248,4.0,6.0,68,-99.99,,,-99.99,,2013-06-16 09:01:00,
2013-06-16 03:22:00,40.0,30.0,-100.00,WSW,244,2.0,4.0,65,-99.99,,,-99.99,,2013-06-16 09:22:00,
2013-06-16 03:33:00,40.0,30.0,-100.00,WSW,244,2.0,4.0,65,-99.99,,,-99.99,,2013-06-16 09:33:00,
2013-06-16 03:42:00,40.0,30.0,-100.00,SW,229,2.0,4.0,68,-99.99,,,-99.99,,2013-06-16 09:42:00,
2013-06-16 03:52:00,40.0,30.0,-100.00,SW,229,2.0,4.0,68,-99.99,,,-99.99,,2013-06-16 09:52:00,
2013-06-16 04:01:00,40.0,30.0,-100.00,SW,229,2.0,3.0,68,-99.99,,,-99.99,,2013-06-16 10:01:00,
2013-06-16 04:33:00,39.0,30.0,-100.00,SW,232,2.0,4.0,70,-99.99,,,-99.99,,2013-06-16 10:33:00,
2013-06-16 04:53:00,38.0,29.0,-100.00,WSW,237,2.0,4.0,71,-99.99,,,-99.99,,2013-06-16 10:53:00,
2013-06-16 05:02:00,38.0,29.0,-100.00,WSW,237,2.0,4.0,71,-99.99,,,-99.99,,2013-06-16 11:02:00,
2013-06-16 05:11:00,38.0,29.0,-100.00,SW,225,2.0,5.0,70,-99.99,,,-99.99,,2013-06-16 11:11:00,
2013-06-16 05:22:00,38.0,29.0,-100.00,SW,225,2.0,5.0,70,-99.99,,,-99.99,,2013-06-16 11:22:00,
2013-06-16 05:33:00,38.0,29.0,-100.00,SW,225,2.0,5.0,70,-99.99,,,-99.99,,2013-06-16 11:33:00,
2013-06-16 05:43:00,37.0,29.0,-100.00,WSW,244,3.0,5.0,71,-99.99,,,-99.99,,2013-06-16 11:43:00,
2013-06-16 05:53:00,37.0,29.0,-100.00,WSW,244,3.0,5.0,71,-99.99,,,-99.99,,2013-06-16 11:53:00,
2013-06-16 06:02:00,37.0,29.0,-100.00,WSW,247,1.0,3.0,72,-99.99,,,-99.99,,2013-06-16 12:02:00,
2013-06-16 06:11:00,37.0,29.0,-100.00,SW,230,2.0,4.0,72,-99.99,,,-99.99,,2013-06-16 12:11:00,
2013-06-16 06:22:00,37.0,29.0,-100.00,SW,230,2.0,4.0,72,-99.99,,,-99.99,,2013-06-16 12:22:00,
2013-06-16 07:22:00,41.0,32.0,-100.00,SSW,197,0.0,2.0,68,-99.99,,,-99.99,,2013-06-16 13:22:00,
2013-06-16 07:34:00,41.0,32.0,-100.00,SSW,197,0.0,2.0,68,-99.99,,,-99.99,,2013-06-16 13:34:00,
2013-06-16 07:42:00,50.0,33.0,-100.00,East,90,2.0,4.0,51,-99.99,,,-99.99,,2013-06-16 13:42:00,
2013-06-16 07:53:00,50.0,33.0,-100.00,East,90,2.0,4.0,51,-99.99,,,-99.99,,2013-06-16 13:53:00,
2013-06-16 08:01:00,47.0,31.0,-100.00,ENE,74,3.0,6.0,55,-99.99,,,-99.99,,2013-06-16 14:01:00,
2013-06-16 08:12:00,47.0,31.0,-100.00,ENE,74,3.0,6.0,55,-99.99,,,-99.99,,2013-06-16 14:12:00,
2013-06-16 08:22:00,50.0,31.0,-100.00,NE,55,1.0,3.0,47,-99.99,,,-99.99,,2013-06-16 14:22:00,
2013-06-16 08:34:00,50.0,31.0,-100.00,NE,55,1.0,3.0,47,-99.99,,,-99.99,,2013-06-16 14:34:00,
2013-06-16 08:43:00,55.0,33.0,-100.00,East,89,2.0,4.0,43,-99.99,,,-99.99,,2013-06-16 14:43:00,
2013-06-16 08:52:00,55.0,33.0,-100.00,East,89,2.0,4.0,43,-99.99,,,-99.99,,2013-06-16 14:52:00,
2013-06-16 09:02:00,58.0,33.0,-100.00,East,89,2.0,5.0,38,-99.99,,,-99.99,,2013-06-16 15:02:00,
2013-06-16 09:12:00,58.0,32.0,-100.00,East,96,1.0,3.0,37,-99.99,,,-99.99,,2013-06-16 15:12:00,
2013-06-16 09:22:00,58.0,32.0,-100.00,East,96,1.0,3.0,37,-99.99,,,-99.99,,2013-06-16 15:22:00,
2013-06-16 09:33:00,58.0,32.0,-100.00,East,96,1.0,3.0,37,-99.99,,,-99.99,,2013-06-16 15:33:00,
2013-06-16 09:43:00,58.0,32.0,-100.00,East,96,1.0,3.0,37,-99.99,,,-99.99,,2013-06-16 15:43:00,
2013-06-16 09:52:00,64.0,34.0,-100.00,East,97,1.0,4.0,32,-99.99,,,-99.99,,2013-06-16 15:52:00,
2013-06-16 10:01:00,64.0,33.0,-100.00,ENE,57,2.0,4.0,31,-99.99,,,-99.99,,2013-06-16 16:01:00,
2013-06-16 10:11:00,66.0,34.0,-100.00,East,92,2.0,5.0,30,-99.99,,,-99.99,,2013-06-16 16:11:00,
2013-06-16 10:22:00,66.0,34.0,-100.00,East,92,2.0,5.0,30,-99.99,,,-99.99,,2013-06-16 16:22:00,
2013-06-16 10:33:00,66.0,34.0,-100.00,East,92,2.0,5.0,30,-99.99,,,-99.99,,2013-06-16 16:33:00,
2013-06-16 10:43:00,71.0,33.0,-100.00,ESE,107,1.0,5.0,24,-99.99,,,-99.99,,2013-06-16 16:43:00,
2013-06-16 10:53:00,71.0,33.0,-100.00,ESE,107,1.0,5.0,24,-99.99,,,-99.99,,2013-06-16 16:53:00,
2013-06-16 11:01:00,73.0,33.0,-100.00,SSE,155,2.0,5.0,23,-99.99,,,-99.99,,2013-06-16 17:01:00,
2013-06-16 11:11:00,73.0,33.0,-100.00,SSE,155,2.0,5.0,23,-99.99,,,-99.99,,2013-06-16 17:11:00,
2013-06-16 11:22:00,72.0,31.0,-100.00,North,0,1.0,4.0,22,-99.99,,,-99.99,,2013-06-16 17:22:00,
2013-06-16 11:34:00,72.0,31.0,-100.00,North,0,1.0,4.0,22,-99.99,,,-99.99,,2013-06-16 17:34:00,
2013-06-16 11:43:00,75.0,30.0,-100.00,NE,36,3.0,8.0,19,-99.99,,,-99.99,,2013-06-16 17:43:00,
2013-06-16 11:53:00,75.0,30.0,-100.00,NE,36,3.0,8.0,19,-99.99,,,-99.99,,2013-06-16 17:53:00,
2013-06-16 12:02:00,75.0,29.0,-100.00,NNE,14,3.0,7.0,17,-99.99,,,-99.99,,2013-06-16 18:02:00,
2013-06-16 12:12:00,75.0,29.0,-100.00,NNE,14,3.0,7.0,17,-99.99,,,-99.99,,2013-06-16 18:12:00,
2013-06-16 12:22:00,77.0,25.0,-100.00,North,355,3.0,13.0,14,-99.99,,,-99.99,,2013-06-16 18:22:00,
2013-06-16 12:33:00,77.0,25.0,-100.00,North,355,3.0,13.0,14,-99.99,,,-99.99,,2013-06-16 18:33:00,
2013-06-16 12:43:00,79.0,19.0,-100.00,WSW,247,8.0,26.0,10,-99.99,,,-99.99,,2013-06-16 18:43:00,
2013-06-16 12:52:00,79.0,19.0,-100.00,WSW,247,8.0,26.0,10,-99.99,,,-99.99,,2013-06-16 18:52:00,
2013-06-16 13:01:00,81.0,20.0,-100.00,SW,233,8.0,20.0,10,-99.99,,,-99.99,,2013-06-16 19:01:00,
2013-06-16 13:11:00,81.0,19.0,-100.00,WSW,241,8.0,19.0,9,-99.99,,,-99.99,,2013-06-16 19:11:00,
2013-06-16 13:22:00,81.0,19.0,-100.00,WSW,241,8.0,19.0,9,-99.99,,,-99.99,,2013-06-16 19:22:00,
2013-06-16 13:33:00,81.0,19.0,-100.00,WSW,241,8.0,19.0,9,-99.99,,,-99.99,,2013-06-16 19:33:00,
2013-06-16 13:43:00,81.0,21.0,-100.00,SW,219,5.0,14.0,10,-99.99,,,-99.99,,2013-06-16 19:43:00,
2013-06-16 13:53:00,81.0,21.0,-100.00,SW,219,5.0,14.0,10,-99.99,,,-99.99,,2013-06-16 19:53:00,
2013-06-16 14:02:00,82.0,24.0,-100.00,SSW,207,7.0,17.0,11,-99.99,,,-99.99,,2013-06-16 20:02:00,
2013-06-16 14:11:00,82.0,24.0,-100.00,SSW,207,7.0,17.0,11,-99.99,,,-99.99,,2013-06-16 20:11:00,
2013-06-16 14:22:00,81.0,21.0,-100.00,WSW,252,8.0,19.0,10,-99.99,,,-99.99,,2013-06-16 20:22:00,
2013-06-16 14:33:00,81.0,21.0,-100.00,WSW,252,8.0,19.0,10,-99.99,,,-99.99,,2013-06-16 20:33:00,
2013-06-16 14:42:00,80.0,20.0,-100.00,WSW,245,10.0,19.0,10,-99.99,,,-99.99,,2013-06-16 20:42:00,
2013-06-16 14:53:00,80.0,20.0,-100.00,WSW,245,10.0,19.0,10,-99.99,,,-99.99,,2013-06-16 20:53:00,
2013-06-16 15:01:00,81.0,22.0,-100.00,SW,223,10.0,22.0,11,-99.99,,,-99.99,,2013-06-16 21:01:00,
2013-06-16 15:11:00,81.0,22.0,-100.00,SW,223,10.0,22.0,11,-99.99,,,-99.99,,2013-06-16 21:11:00,
2013-06-16 15:21:00,81.0,21.0,-100.00,WSW,257,7.0,16.0,10,-99.99,,,-99.99,,2013-06-16 21:21:00,
2013-06-16 15:32:00,81.0,21.0,-100.00,WSW,257,7.0,16.0,10,-99.99,,,-99.99,,2013-06-16 21:32:00,
2013-06-16 15:42:00,81.0,19.0,-100.00,West,265,7.0,17.0,10,-99.99,,,-99.99,,2013-06-16 21:42:00,
2013-06-16 15:53:00,81.0,19.0,-100.00,West,265,7.0,17.0,10,-99.99,,,-99.99,,2013-06-16 21:53:00,
2013-06-16 16:01:00,81.0,19.0,-100.00,WSW,245,8.0,21.0,9,-99.99,,,-99.99,,2013-06-16 22:01:00,
2013-06-16 16:12:00,80.0,17.0,-100.00,West,268,9.0,22.0,9,-99.99,,,-99.99,,2013-06-16 22:12:00,
2013-06-16 16:22:00,80.0,17.0,-100.00,West,268,9.0,22.0,9,-99.99,,,-99.99,,2013-06-16 22:22:00,
2013-06-16 16:32:00,80.0,17.0,-100.00,West,268,9.0,22.0,9,-99.99,,,-99.99,,2013-06-16 22:32:00,
2013-06-16 16:42:00,81.0,19.0,-100.00,WSW,252,8.0,20.0,9,-99.99,,,-99.99,,2013-06-16 22:42:00,
2013-06-16 16:52:00,81.0,19.0,-100.00,WSW,252,8.0,20.0,9,-99.99,,,-99.99,,2013-06-16 22:52:00,
2013-06-16 17:01:00,82.0,17.0,-100.00,WSW,250,9.0,18.0,8,-99.99,,,-99.99,,2013-06-16 23:01:00,
2013-06-16 17:11:00,82.0,17.0,-100.00,WSW,239,8.0,16.0,8,-99.99,,,-99.99,,2013-06-16 23:11:00,
2013-06-16 17:22:00,82.0,17.0,-100.00,WSW,239,8.0,16.0,8,-99.99,,,-99.99,,2013-06-16 23:22:00,
2013-06-16 17:32:00,82.0,17.0,-100.00,WSW,239,8.0,16.0,8,-99.99,,,-99.99,,2013-06-16 23:32:00,
2013-06-16 17:42:00,83.0,18.0,-100.00,SW,232,7.0,15.0,8,-99.99,,,-99.99,,2013-06-16 23:42:00,
2013-06-16 17:52:00,83.0,18.0,-100.00,SW,232,7.0,15.0,8,-99.99,,,-99.99,,2013-06-16 23:52:00,
2013-06-16 18:01:00,84.0,19.0,-100.00,SSW,211,6.0,15.0,9,-99.99,,,-99.99,,2013-06-17 00:01:00,
2013-06-16 18:11:00,83.0,18.0,-100.00,SW,236,5.0,11.0,8,-99.99,,,-99.99,,2013-06-17 00:11:00,
2013-06-16 18:22:00,83.0,18.0,-100.00,SW,236,5.0,11.0,8,-99.99,,,-99.99,,2013-06-17 00:22:00,
2013-06-16 18:32:00,83.0,18.0,-100.00,SW,236,5.0,11.0,8,-99.99,,,-99.99,,2013-06-17 00:32:00,
2013-06-16 18:42:00,85.0,16.0,-100.00,West,260,4.0,14.0,7,-99.99,,,-99.99,,2013-06-17 00:42:00,
2013-06-16 18:52:00,85.0,16.0,-100.00,West,260,4.0,14.0,7,-99.99,,,-99.99,,2013-06-17 00:52:00,
2013-06-16 19:02:00,82.0,16.0,-100.00,WNW,290,6.0,12.0,8,-99.99,,,-99.99,,2013-06-17 01:02:00,
2013-06-16 19:11:00,81.0,16.0,-100.00,NW,308,4.0,10.0,8,-99.99,,,-99.99,,2013-06-17 01:11:00,
2013-06-16 19:22:00,81.0,16.0,-100.00,NW,308,4.0,10.0,8,-99.99,,,-99.99,,2013-06-17 01:22:00,
2013-06-16 19:32:00,81.0,16.0,-100.00,NW,308,4.0,10.0,8,-99.99,,,-99.99,,2013-06-17 01:32:00,
2013-06-16 19:43:00,82.0,21.0,-100.00,WNW,283,4.0,9.0,10,-99.99,,,-99.99,,2013-06-17 01:43:00,
2013-06-16 19:53:00,82.0,21.0,-100.00,WNW,283,4.0,9.0,10,-99.99,,,-99.99,,2013-06-17 01:53:00,
2013-06-16 20:02:00,82.0,23.0,-100.00,WNW,289,3.0,7.0,11,-99.99,,,-99.99,,2013-06-17 02:02:00,
2013-06-16 20:11:00,82.0,22.0,-100.00,WNW,282,4.0,7.0,10,-99.99,,,-99.99,,2013-06-17 02:11:00,
2013-06-16 20:22:00,82.0,22.0,-100.00,WNW,282,4.0,7.0,10,-99.99,,,-99.99,,2013-06-17 02:22:00,
2013-06-16 20:43:00,72.0,29.0,-100.00,WSW,249,6.0,8.0,20,-99.99,,,-99.99,,2013-06-17 02:43:00,
2013-06-16 20:53:00,72.0,29.0,-100.00,WSW,249,6.0,8.0,20,-99.99,,,-99.99,,2013-06-17 02:53:00,
2013-06-16 21:02:00,68.0,32.0,-100.00,WSW,239,7.0,9.0,25,-99.99,,,-99.99,,2013-06-17 03:02:00,
2013-06-16 21:12:00,68.0,32.0,-100.00,WSW,239,7.0,9.0,25,-99.99,,,-99.99,,2013-06-17 03:12:00,
2013-06-16 21:22:00,66.0,31.0,-100.00,WSW,247,7.0,11.0,27,-99.99,,,-99.99,,2013-06-17 03:22:00,
2013-06-16 21:33:00,66.0,31.0,-100.00,WSW,247,7.0,11.0,27,-99.99,,,-99.99,,2013-06-17 03:33:00,
2013-06-16 21:44:00,62.0,29.0,-100.00,West,260,5.0,7.0,28,-99.99,,,-99.99,,2013-06-17 03:44:00,
2013-06-16 21:54:00,62.0,29.0,-100.00,West,260,5.0,7.0,28,-99.99,,,-99.99,,2013-06-17 03:54:00,
2013-06-16 22:02:00,60.0,29.0,-100.00,SW,236,3.0,7.0,30,-99.99,,,-99.99,,2013-06-17 04:02:00,
2013-06-16 22:12:00,56.0,28.0,-100.00,SSW,213,2.0,5.0,33,-99.99,,,-99.99,,2013-06-17 04:12:00,
2013-06-16 22:22:00,56.0,28.0,-100.00,SSW,213,2.0,5.0,33,-99.99,,,-99.99,,2013-06-17 04:22:00,
2013-06-16 22:33:00,56.0,28.0,-100.00,SSW,213,2.0,5.0,33,-99.99,,,-99.99,,2013-06-17 04:33:00,
2013-06-16 22:42:00,53.0,30.0,-100.00,WSW,238,4.0,5.0,41,-99.99,,,-99.99,,2013-06-17 04:42:00,
2013-06-16 22:53:00,53.0,30.0,-100.00,WSW,238,4.0,5.0,41,-99.99,,,-99.99,,2013-06-17 04:53:00,
2013-06-16 23:02:00,50.0,30.0,-100.00,WSW,239,4.0,5.0,45,-99.99,,,-99.99,,2013-06-17 05:02:00,
2013-06-16 23:11:00,50.0,30.0,-100.00,WSW,239,4.0,5.0,45,-99.99,,,-99.99,,2013-06-17 05:11:00,
2013-06-16 23:33:00,49.0,29.0,-100.00,SW,231,4.0,6.0,45,-99.99,,,-99.99,,2013-06-17 05:33:00,
2013-06-16 23:44:00,49.0,27.0,-100.00,SW,219,3.0,5.0,42,-99.99,,,-99.99,,2013-06-17 05:44:00,
2013-06-16 23:53:00,49.0,27.0,-100.00,SW,219,3.0,5.0,42,-99.99,,,-99.99,,2013-06-17 05:53:00,